sensor_id;sensor_type;location;lat;lon;timestamp;P1;durP1;ratioP1;P2;durP2;ratioP2
33022;SDS011;19390;51.460;5.710;2023-04-01T00:01:37;9.43;;;3.28;;
33022;SDS011;19390;51.460;5.710;2023-04-01T00:04:03;7.85;;;2.22;;
33022;SDS011;19390;51.460;5.710;2023-04-01T00:06:29;10.70;;;2.03;;
33022;SDS011;19390;51.460;5.710;2023-04-01T00:08:55;8.05;;;2.40;;
33022;SDS011;19390;51.460;5.710;2023-04-01T00:11:21;6.65;;;1.98;;
33022;SDS011;19390;51.460;5.710;2023-04-01T00:13:46;9.27;;;2.45;;
33022;SDS011;19390;51.460;5.710;2023-04-01T00:16:13;7.30;;;2.05;;
33022;SDS011;19390;51.460;5.710;2023-04-01T00:18:39;8.02;;;2.75;;
33022;SDS011;19390;51.460;5.710;2023-04-01T00:21:05;9.15;;;2.28;;
33022;SDS011;19390;51.460;5.710;2023-04-01T00:23:31;9.02;;;2.75;;
33022;SDS011;19390;51.460;5.710;2023-04-01T00:25:58;8.48;;;2.80;;
33022;SDS011;19390;51.460;5.710;2023-04-01T00:28:25;7.80;;;2.72;;
33022;SDS011;19390;51.460;5.710;2023-04-01T00:30:51;6.93;;;2.20;;
33022;SDS011;19390;51.460;5.710;2023-04-01T00:33:17;7.65;;;2.40;;
33022;SDS011;19390;51.460;5.710;2023-04-01T00:35:43;7.55;;;2.13;;
33022;SDS011;19390;51.460;5.710;2023-04-01T00:38:09;5.60;;;1.92;;
33022;SDS011;19390;51.460;5.710;2023-04-01T00:40:43;5.50;;;1.70;;
33022;SDS011;19390;51.460;5.710;2023-04-01T00:43:14;7.95;;;2.25;;
33022;SDS011;19390;51.460;5.710;2023-04-01T00:45:43;6.30;;;2.00;;
33022;SDS011;19390;51.460;5.710;2023-04-01T00:48:11;4.75;;;1.35;;
33022;SDS011;19390;51.460;5.710;2023-04-01T00:50:38;7.20;;;2.33;;
33022;SDS011;19390;51.460;5.710;2023-04-01T00:53:06;6.35;;;1.63;;
33022;SDS011;19390;51.460;5.710;2023-04-01T00:55:34;4.05;;;1.63;;
33022;SDS011;19390;51.460;5.710;2023-04-01T00:58:03;5.10;;;2.03;;
33022;SDS011;19390;51.460;5.710;2023-04-01T01:00:32;5.28;;;1.60;;
33022;SDS011;19390;51.460;5.710;2023-04-01T01:02:59;7.45;;;1.45;;
33022;SDS011;19390;51.460;5.710;2023-04-01T01:05:29;6.80;;;1.50;;
33022;SDS011;19390;51.460;5.710;2023-04-01T01:08:13;3.80;;;1.58;;
33022;SDS011;19390;51.460;5.710;2023-04-01T01:11:01;2.20;;;1.50;;
33022;SDS011;19390;51.460;5.710;2023-04-01T01:16:34;3.47;;;1.50;;
33022;SDS011;19390;51.460;5.710;2023-04-01T01:19:08;5.15;;;1.70;;
33022;SDS011;19390;51.460;5.710;2023-04-01T01:22:11;7.25;;;1.70;;
33022;SDS011;19390;51.460;5.710;2023-04-01T01:27:58;5.47;;;1.60;;
33022;SDS011;19390;51.460;5.710;2023-04-01T01:31:10;5.05;;;1.42;;
33022;SDS011;19390;51.460;5.710;2023-04-01T01:36:36;3.53;;;1.23;;
33022;SDS011;19390;51.460;5.710;2023-04-01T01:39:05;2.72;;;1.20;;
33022;SDS011;19390;51.460;5.710;2023-04-01T01:41:32;4.80;;;1.52;;
33022;SDS011;19390;51.460;5.710;2023-04-01T01:44:02;5.05;;;1.73;;
33022;SDS011;19390;51.460;5.710;2023-04-01T01:46:29;8.15;;;1.88;;
33022;SDS011;19390;51.460;5.710;2023-04-01T01:48:56;2.10;;;1.60;;
33022;SDS011;19390;51.460;5.710;2023-04-01T01:51:24;5.00;;;1.23;;
33022;SDS011;19390;51.460;5.710;2023-04-01T01:53:52;3.50;;;1.48;;
33022;SDS011;19390;51.460;5.710;2023-04-01T01:56:18;2.80;;;1.27;;
33022;SDS011;19390;51.460;5.710;2023-04-01T01:58:49;2.92;;;2.03;;
33022;SDS011;19390;51.460;5.710;2023-04-01T02:01:20;1.83;;;1.60;;
33022;SDS011;19390;51.460;5.710;2023-04-01T02:03:50;3.33;;;1.63;;
33022;SDS011;19390;51.460;5.710;2023-04-01T02:06:18;1.85;;;1.33;;
33022;SDS011;19390;51.460;5.710;2023-04-01T02:08:53;2.35;;;1.67;;
33022;SDS011;19390;51.460;5.710;2023-04-01T02:11:32;1.67;;;1.48;;
33022;SDS011;19390;51.460;5.710;2023-04-01T02:14:11;2.75;;;1.52;;
33022;SDS011;19390;51.460;5.710;2023-04-01T02:16:51;4.85;;;1.85;;
33022;SDS011;19390;51.460;5.710;2023-04-01T02:19:31;4.20;;;2.20;;
33022;SDS011;19390;51.460;5.710;2023-04-01T02:22:02;3.28;;;2.20;;
33022;SDS011;19390;51.460;5.710;2023-04-01T02:24:31;7.43;;;2.90;;
33022;SDS011;19390;51.460;5.710;2023-04-01T02:27:00;6.28;;;3.58;;
33022;SDS011;19390;51.460;5.710;2023-04-01T02:29:25;5.60;;;3.45;;
33022;SDS011;19390;51.460;5.710;2023-04-01T02:31:51;4.55;;;3.42;;
33022;SDS011;19390;51.460;5.710;2023-04-01T02:34:19;6.32;;;5.10;;
33022;SDS011;19390;51.460;5.710;2023-04-01T02:36:46;6.45;;;4.68;;
33022;SDS011;19390;51.460;5.710;2023-04-01T02:39:13;6.70;;;4.57;;
33022;SDS011;19390;51.460;5.710;2023-04-01T02:41:43;7.10;;;5.28;;
33022;SDS011;19390;51.460;5.710;2023-04-01T02:44:10;8.90;;;4.55;;
33022;SDS011;19390;51.460;5.710;2023-04-01T02:46:37;7.97;;;5.40;;
33022;SDS011;19390;51.460;5.710;2023-04-01T02:49:03;5.22;;;4.72;;
33022;SDS011;19390;51.460;5.710;2023-04-01T02:51:30;7.32;;;5.75;;
33022;SDS011;19390;51.460;5.710;2023-04-01T02:53:55;8.82;;;5.47;;
33022;SDS011;19390;51.460;5.710;2023-04-01T02:56:21;11.13;;;7.35;;
33022;SDS011;19390;51.460;5.710;2023-04-01T02:58:46;9.15;;;6.90;;
33022;SDS011;19390;51.460;5.710;2023-04-01T03:01:12;10.88;;;6.68;;
33022;SDS011;19390;51.460;5.710;2023-04-01T03:03:38;11.68;;;7.40;;
33022;SDS011;19390;51.460;5.710;2023-04-01T03:06:07;8.77;;;6.30;;
33022;SDS011;19390;51.460;5.710;2023-04-01T03:08:34;6.90;;;6.20;;
33022;SDS011;19390;51.460;5.710;2023-04-01T03:11:00;8.57;;;7.20;;
33022;SDS011;19390;51.460;5.710;2023-04-01T03:13:25;10.32;;;6.03;;
33022;SDS011;19390;51.460;5.710;2023-04-01T03:15:51;6.32;;;5.30;;
33022;SDS011;19390;51.460;5.710;2023-04-01T03:18:18;7.45;;;5.75;;
33022;SDS011;19390;51.460;5.710;2023-04-01T03:20:43;7.22;;;6.10;;
33022;SDS011;19390;51.460;5.710;2023-04-01T03:23:09;8.98;;;6.82;;
33022;SDS011;19390;51.460;5.710;2023-04-01T03:25:35;7.45;;;5.75;;
33022;SDS011;19390;51.460;5.710;2023-04-01T03:28:01;7.18;;;6.13;;
33022;SDS011;19390;51.460;5.710;2023-04-01T03:30:27;8.50;;;7.47;;
33022;SDS011;19390;51.460;5.710;2023-04-01T03:32:54;10.23;;;7.95;;
33022;SDS011;19390;51.460;5.710;2023-04-01T03:35:20;12.20;;;9.80;;
33022;SDS011;19390;51.460;5.710;2023-04-01T03:37:46;14.20;;;9.40;;
33022;SDS011;19390;51.460;5.710;2023-04-01T03:40:12;12.93;;;9.65;;
33022;SDS011;19390;51.460;5.710;2023-04-01T03:42:38;13.68;;;9.52;;
33022;SDS011;19390;51.460;5.710;2023-04-01T03:45:04;14.18;;;9.93;;
33022;SDS011;19390;51.460;5.710;2023-04-01T03:47:30;13.88;;;10.35;;
33022;SDS011;19390;51.460;5.710;2023-04-01T03:49:55;12.55;;;10.55;;
33022;SDS011;19390;51.460;5.710;2023-04-01T03:52:21;14.10;;;10.43;;
33022;SDS011;19390;51.460;5.710;2023-04-01T03:54:47;13.10;;;10.23;;
33022;SDS011;19390;51.460;5.710;2023-04-01T03:57:13;12.77;;;9.25;;
33022;SDS011;19390;51.460;5.710;2023-04-01T03:59:38;15.27;;;10.88;;
33022;SDS011;19390;51.460;5.710;2023-04-01T04:02:04;15.60;;;10.10;;
33022;SDS011;19390;51.460;5.710;2023-04-01T04:04:30;17.25;;;10.68;;
33022;SDS011;19390;51.460;5.710;2023-04-01T04:06:56;15.05;;;11.15;;
33022;SDS011;19390;51.460;5.710;2023-04-01T04:09:22;13.88;;;10.70;;
33022;SDS011;19390;51.460;5.710;2023-04-01T04:11:48;15.27;;;10.80;;
33022;SDS011;19390;51.460;5.710;2023-04-01T04:14:14;14.65;;;10.10;;
33022;SDS011;19390;51.460;5.710;2023-04-01T04:16:40;13.77;;;9.88;;
33022;SDS011;19390;51.460;5.710;2023-04-01T04:19:06;12.35;;;9.82;;
33022;SDS011;19390;51.460;5.710;2023-04-01T04:21:32;11.30;;;9.52;;
33022;SDS011;19390;51.460;5.710;2023-04-01T04:23:58;11.85;;;9.60;;
33022;SDS011;19390;51.460;5.710;2023-04-01T04:26:27;12.40;;;9.90;;
33022;SDS011;19390;51.460;5.710;2023-04-01T04:28:53;12.05;;;9.48;;
33022;SDS011;19390;51.460;5.710;2023-04-01T04:31:23;12.70;;;9.93;;
33022;SDS011;19390;51.460;5.710;2023-04-01T04:33:49;11.77;;;9.32;;
33022;SDS011;19390;51.460;5.710;2023-04-01T04:36:16;11.50;;;9.45;;
33022;SDS011;19390;51.460;5.710;2023-04-01T04:38:42;12.70;;;10.13;;
33022;SDS011;19390;51.460;5.710;2023-04-01T04:41:15;12.30;;;10.65;;
33022;SDS011;19390;51.460;5.710;2023-04-01T04:43:47;13.40;;;11.15;;
33022;SDS011;19390;51.460;5.710;2023-04-01T04:46:16;16.23;;;11.60;;
33022;SDS011;19390;51.460;5.710;2023-04-01T04:48:42;15.75;;;11.80;;
33022;SDS011;19390;51.460;5.710;2023-04-01T04:51:11;15.82;;;11.82;;
33022;SDS011;19390;51.460;5.710;2023-04-01T04:53:39;15.65;;;11.80;;
33022;SDS011;19390;51.460;5.710;2023-04-01T04:56:05;17.60;;;12.20;;
33022;SDS011;19390;51.460;5.710;2023-04-01T04:58:31;13.35;;;10.52;;
33022;SDS011;19390;51.460;5.710;2023-04-01T05:00:56;13.95;;;10.13;;
33022;SDS011;19390;51.460;5.710;2023-04-01T05:03:22;13.55;;;10.20;;
33022;SDS011;19390;51.460;5.710;2023-04-01T05:05:51;18.27;;;11.23;;
33022;SDS011;19390;51.460;5.710;2023-04-01T05:08:18;17.77;;;12.50;;
33022;SDS011;19390;51.460;5.710;2023-04-01T05:10:45;17.30;;;11.88;;
33022;SDS011;19390;51.460;5.710;2023-04-01T05:13:11;26.75;;;17.05;;
33022;SDS011;19390;51.460;5.710;2023-04-01T05:15:37;17.77;;;12.90;;
33022;SDS011;19390;51.460;5.710;2023-04-01T05:18:02;19.05;;;12.85;;
33022;SDS011;19390;51.460;5.710;2023-04-01T05:20:28;14.25;;;11.20;;
33022;SDS011;19390;51.460;5.710;2023-04-01T05:22:57;15.68;;;11.23;;
33022;SDS011;19390;51.460;5.710;2023-04-01T05:25:24;13.15;;;10.23;;
33022;SDS011;19390;51.460;5.710;2023-04-01T05:27:50;11.52;;;9.05;;
33022;SDS011;19390;51.460;5.710;2023-04-01T05:30:16;12.85;;;9.25;;
33022;SDS011;19390;51.460;5.710;2023-04-01T05:32:41;11.75;;;9.55;;
33022;SDS011;19390;51.460;5.710;2023-04-01T05:35:08;12.40;;;9.27;;
33022;SDS011;19390;51.460;5.710;2023-04-01T05:37:34;13.45;;;9.55;;
33022;SDS011;19390;51.460;5.710;2023-04-01T05:40:00;12.05;;;8.98;;
33022;SDS011;19390;51.460;5.710;2023-04-01T05:42:27;11.02;;;8.25;;
33022;SDS011;19390;51.460;5.710;2023-04-01T05:44:52;12.43;;;9.25;;
33022;SDS011;19390;51.460;5.710;2023-04-01T05:47:18;11.55;;;9.05;;
33022;SDS011;19390;51.460;5.710;2023-04-01T05:49:44;9.50;;;7.72;;
33022;SDS011;19390;51.460;5.710;2023-04-01T05:52:09;9.55;;;7.35;;
33022;SDS011;19390;51.460;5.710;2023-04-01T05:54:35;10.50;;;8.10;;
33022;SDS011;19390;51.460;5.710;2023-04-01T05:57:00;9.95;;;7.50;;
33022;SDS011;19390;51.460;5.710;2023-04-01T05:59:26;9.05;;;7.05;;
33022;SDS011;19390;51.460;5.710;2023-04-01T06:01:52;6.55;;;5.68;;
33022;SDS011;19390;51.460;5.710;2023-04-01T06:04:18;8.07;;;5.82;;
33022;SDS011;19390;51.460;5.710;2023-04-01T06:06:43;9.02;;;6.25;;
33022;SDS011;19390;51.460;5.710;2023-04-01T06:09:21;8.48;;;6.60;;
33022;SDS011;19390;51.460;5.710;2023-04-01T06:20:12;6.82;;;5.80;;
33022;SDS011;19390;51.460;5.710;2023-04-01T06:25:34;8.45;;;6.38;;
33022;SDS011;19390;51.460;5.710;2023-04-01T06:31:10;9.77;;;7.10;;
33022;SDS011;19390;51.460;5.710;2023-04-01T06:36:25;8.85;;;6.63;;
33022;SDS011;19390;51.460;5.710;2023-04-01T06:42:27;12.13;;;8.20;;
33022;SDS011;19390;51.460;5.710;2023-04-01T06:56:14;10.63;;;7.45;;
33022;SDS011;19390;51.460;5.710;2023-04-01T07:01:30;12.38;;;7.82;;
33022;SDS011;19390;51.460;5.710;2023-04-01T07:04:01;11.15;;;8.20;;
33022;SDS011;19390;51.460;5.710;2023-04-01T07:09:03;13.43;;;8.77;;
33022;SDS011;19390;51.460;5.710;2023-04-01T07:11:34;14.07;;;8.85;;
33022;SDS011;19390;51.460;5.710;2023-04-01T07:14:04;16.15;;;10.32;;
33022;SDS011;19390;51.460;5.710;2023-04-01T07:22:03;17.73;;;11.40;;
33022;SDS011;19390;51.460;5.710;2023-04-01T07:24:36;16.20;;;10.88;;
33022;SDS011;19390;51.460;5.710;2023-04-01T07:27:05;18.45;;;12.77;;
33022;SDS011;19390;51.460;5.710;2023-04-01T07:29:35;18.17;;;12.55;;
33022;SDS011;19390;51.460;5.710;2023-04-01T07:35:06;16.88;;;13.13;;
33022;SDS011;19390;51.460;5.710;2023-04-01T07:37:52;19.23;;;14.15;;
33022;SDS011;19390;51.460;5.710;2023-04-01T07:51:25;21.75;;;16.23;;
33022;SDS011;19390;51.460;5.710;2023-04-01T07:56:55;24.98;;;17.85;;
33022;SDS011;19390;51.460;5.710;2023-04-01T08:08:19;23.08;;;15.65;;
33022;SDS011;19390;51.460;5.710;2023-04-01T08:10:55;23.20;;;15.63;;
33022;SDS011;19390;51.460;5.710;2023-04-01T08:13:52;23.70;;;16.53;;
33022;SDS011;19390;51.460;5.710;2023-04-01T08:18:58;21.50;;;15.43;;
33022;SDS011;19390;51.460;5.710;2023-04-01T08:21:45;23.20;;;16.23;;
33022;SDS011;19390;51.460;5.710;2023-04-01T08:24:35;23.45;;;15.35;;
33022;SDS011;19390;51.460;5.710;2023-04-01T08:30:37;25.05;;;16.83;;
33022;SDS011;19390;51.460;5.710;2023-04-01T08:32:39;24.27;;;17.17;;
33022;SDS011;19390;51.460;5.710;2023-04-01T08:35:14;22.55;;;16.35;;
33022;SDS011;19390;51.460;5.710;2023-04-01T08:37:49;29.20;;;17.75;;
33022;SDS011;19390;51.460;5.710;2023-04-01T08:40:27;24.02;;;16.20;;
33022;SDS011;19390;51.460;5.710;2023-04-01T08:45:38;24.15;;;16.58;;
33022;SDS011;19390;51.460;5.710;2023-04-01T08:50:54;21.50;;;14.65;;
33022;SDS011;19390;51.460;5.710;2023-04-01T08:53:53;22.73;;;16.00;;
33022;SDS011;19390;51.460;5.710;2023-04-01T08:56:25;23.10;;;15.77;;
33022;SDS011;19390;51.460;5.710;2023-04-01T08:58:59;27.17;;;17.05;;
33022;SDS011;19390;51.460;5.710;2023-04-01T09:01:41;27.08;;;16.38;;
33022;SDS011;19390;51.460;5.710;2023-04-01T09:04:25;24.83;;;17.15;;
33022;SDS011;19390;51.460;5.710;2023-04-01T09:07:07;25.25;;;17.48;;
33022;SDS011;19390;51.460;5.710;2023-04-01T09:21:08;20.83;;;14.70;;
33022;SDS011;19390;51.460;5.710;2023-04-01T09:32:11;21.73;;;14.05;;
33022;SDS011;19390;51.460;5.710;2023-04-01T09:34:54;22.10;;;14.40;;
33022;SDS011;19390;51.460;5.710;2023-04-01T09:40:37;16.02;;;12.35;;
33022;SDS011;19390;51.460;5.710;2023-04-01T09:43:16;24.67;;;14.15;;
33022;SDS011;19390;51.460;5.710;2023-04-01T09:45:58;18.52;;;12.68;;
33022;SDS011;19390;51.460;5.710;2023-04-01T09:48:31;19.90;;;13.20;;
33022;SDS011;19390;51.460;5.710;2023-04-01T10:30:58;12.18;;;10.30;;
33022;SDS011;19390;51.460;5.710;2023-04-01T10:39:29;13.73;;;11.35;;
33022;SDS011;19390;51.460;5.710;2023-04-01T11:13:18;17.95;;;13.60;;
33022;SDS011;19390;51.460;5.710;2023-04-01T11:19:07;22.65;;;16.02;;
33022;SDS011;19390;51.460;5.710;2023-04-01T11:24:31;20.20;;;15.25;;
33022;SDS011;19390;51.460;5.710;2023-04-01T11:27:25;21.60;;;16.02;;
33022;SDS011;19390;51.460;5.710;2023-04-01T11:30:06;18.38;;;14.35;;
33022;SDS011;19390;51.460;5.710;2023-04-01T11:33:02;19.92;;;15.43;;
33022;SDS011;19390;51.460;5.710;2023-04-01T11:41:40;22.53;;;16.30;;
33022;SDS011;19390;51.460;5.710;2023-04-01T11:44:29;19.17;;;14.32;;
33022;SDS011;19390;51.460;5.710;2023-04-01T11:58:12;19.08;;;14.00;;
33022;SDS011;19390;51.460;5.710;2023-04-01T12:24:35;15.82;;;11.90;;
33022;SDS011;19390;51.460;5.710;2023-04-01T12:27:14;15.93;;;11.20;;
33022;SDS011;19390;51.460;5.710;2023-04-01T13:05:24;7.65;;;6.30;;
33022;SDS011;19390;51.460;5.710;2023-04-01T13:11:19;7.50;;;6.57;;
33022;SDS011;19390;51.460;5.710;2023-04-01T13:27:42;10.32;;;9.13;;
33022;SDS011;19390;51.460;5.710;2023-04-01T13:32:46;10.55;;;9.25;;
33022;SDS011;19390;51.460;5.710;2023-04-01T13:35:30;12.50;;;9.77;;
33022;SDS011;19390;51.460;5.710;2023-04-01T13:43:37;12.82;;;9.38;;
33022;SDS011;19390;51.460;5.710;2023-04-01T13:46:33;15.23;;;10.88;;
33022;SDS011;19390;51.460;5.710;2023-04-01T13:55:30;11.48;;;8.70;;
33022;SDS011;19390;51.460;5.710;2023-04-01T13:58:38;12.15;;;8.93;;
33022;SDS011;19390;51.460;5.710;2023-04-01T14:21:04;13.75;;;9.00;;
33022;SDS011;19390;51.460;5.710;2023-04-01T14:23:49;11.35;;;9.38;;
33022;SDS011;19390;51.460;5.710;2023-04-01T14:29:18;12.60;;;10.07;;
33022;SDS011;19390;51.460;5.710;2023-04-01T14:48:49;12.95;;;10.13;;
33022;SDS011;19390;51.460;5.710;2023-04-01T14:51:35;11.50;;;10.38;;
33022;SDS011;19390;51.460;5.710;2023-04-01T14:57:05;13.07;;;10.50;;
33022;SDS011;19390;51.460;5.710;2023-04-01T15:00:12;14.02;;;10.95;;
33022;SDS011;19390;51.460;5.710;2023-04-01T15:05:51;9.13;;;7.80;;
33022;SDS011;19390;51.460;5.710;2023-04-01T15:08:33;9.80;;;8.10;;
33022;SDS011;19390;51.460;5.710;2023-04-01T15:11:17;8.88;;;7.72;;
33022;SDS011;19390;51.460;5.710;2023-04-01T15:14:06;9.70;;;8.18;;
33022;SDS011;19390;51.460;5.710;2023-04-01T15:19:42;10.03;;;8.73;;
33022;SDS011;19390;51.460;5.710;2023-04-01T15:22:57;58.55;;;40.03;;
33022;SDS011;19390;51.460;5.710;2023-04-01T15:25:48;55.08;;;37.25;;
33022;SDS011;19390;51.460;5.710;2023-04-01T15:28:10;98.03;;;47.50;;
33022;SDS011;19390;51.460;5.710;2023-04-01T15:33:41;49.22;;;28.35;;
33022;SDS011;19390;51.460;5.710;2023-04-01T15:39:27;11.95;;;9.00;;
33022;SDS011;19390;51.460;5.710;2023-04-01T15:49:55;10.85;;;7.90;;
33022;SDS011;19390;51.460;5.710;2023-04-01T15:52:49;12.07;;;9.43;;
33022;SDS011;19390;51.460;5.710;2023-04-01T16:19:32;14.13;;;11.38;;
33022;SDS011;19390;51.460;5.710;2023-04-01T16:22:01;14.05;;;11.23;;
33022;SDS011;19390;51.460;5.710;2023-04-01T16:33:17;15.65;;;12.48;;
33022;SDS011;19390;51.460;5.710;2023-04-01T16:38:52;15.13;;;12.18;;
33022;SDS011;19390;51.460;5.710;2023-04-01T16:42:01;15.02;;;10.38;;
33022;SDS011;19390;51.460;5.710;2023-04-01T16:47:45;14.00;;;10.82;;
33022;SDS011;19390;51.460;5.710;2023-04-01T16:50:22;14.68;;;11.68;;
33022;SDS011;19390;51.460;5.710;2023-04-01T16:58:11;12.38;;;11.07;;
33022;SDS011;19390;51.460;5.710;2023-04-01T17:00:58;14.15;;;12.18;;
33022;SDS011;19390;51.460;5.710;2023-04-01T17:03:45;15.93;;;13.00;;
33022;SDS011;19390;51.460;5.710;2023-04-01T17:06:19;17.65;;;14.68;;
33022;SDS011;19390;51.460;5.710;2023-04-01T17:11:37;13.40;;;11.68;;
33022;SDS011;19390;51.460;5.710;2023-04-01T17:19:42;16.50;;;12.88;;
33022;SDS011;19390;51.460;5.710;2023-04-01T17:30:55;15.52;;;13.13;;
33022;SDS011;19390;51.460;5.710;2023-04-01T17:33:58;16.45;;;13.40;;
33022;SDS011;19390;51.460;5.710;2023-04-01T17:39:46;12.07;;;10.77;;
33022;SDS011;19390;51.460;5.710;2023-04-01T17:42:42;15.02;;;13.23;;
33022;SDS011;19390;51.460;5.710;2023-04-01T17:45:24;14.30;;;12.85;;
33022;SDS011;19390;51.460;5.710;2023-04-01T17:48:18;15.02;;;13.20;;
33022;SDS011;19390;51.460;5.710;2023-04-01T17:53:47;13.00;;;11.57;;
33022;SDS011;19390;51.460;5.710;2023-04-01T17:59:16;19.38;;;15.20;;
33022;SDS011;19390;51.460;5.710;2023-04-01T18:02:01;14.68;;;12.48;;
33022;SDS011;19390;51.460;5.710;2023-04-01T18:20:48;15.38;;;11.77;;
33022;SDS011;19390;51.460;5.710;2023-04-01T18:26:01;13.35;;;11.48;;
33022;SDS011;19390;51.460;5.710;2023-04-01T18:34:10;12.77;;;10.85;;
33022;SDS011;19390;51.460;5.710;2023-04-01T18:39:08;12.80;;;9.52;;
33022;SDS011;19390;51.460;5.710;2023-04-01T18:41:49;9.85;;;7.78;;
33022;SDS011;19390;51.460;5.710;2023-04-01T18:44:25;8.85;;;6.45;;
33022;SDS011;19390;51.460;5.710;2023-04-01T18:52:40;8.20;;;6.07;;
33022;SDS011;19390;51.460;5.710;2023-04-01T19:05:40;7.32;;;6.45;;
33022;SDS011;19390;51.460;5.710;2023-04-01T19:10:59;8.93;;;7.38;;
33022;SDS011;19390;51.460;5.710;2023-04-01T19:19:21;8.65;;;7.07;;
33022;SDS011;19390;51.460;5.710;2023-04-01T19:32:36;9.35;;;8.05;;
33022;SDS011;19390;51.460;5.710;2023-04-01T19:38:21;11.68;;;9.07;;
33022;SDS011;19390;51.460;5.710;2023-04-01T19:40:58;12.35;;;9.43;;
33022;SDS011;19390;51.460;5.710;2023-04-01T19:47:04;10.45;;;8.98;;
33022;SDS011;19390;51.460;5.710;2023-04-01T19:50:14;13.68;;;10.48;;
33022;SDS011;19390;51.460;5.710;2023-04-01T19:52:55;14.68;;;11.55;;
33022;SDS011;19390;51.460;5.710;2023-04-01T19:55:37;12.38;;;10.77;;
33022;SDS011;19390;51.460;5.710;2023-04-01T20:00:46;15.05;;;11.70;;
33022;SDS011;19390;51.460;5.710;2023-04-01T20:14:34;13.82;;;11.68;;
33022;SDS011;19390;51.460;5.710;2023-04-01T20:17:13;16.33;;;12.82;;
33022;SDS011;19390;51.460;5.710;2023-04-01T20:27:50;14.45;;;11.70;;
33022;SDS011;19390;51.460;5.710;2023-04-01T20:38:31;13.07;;;11.68;;
33022;SDS011;19390;51.460;5.710;2023-04-01T20:41:26;13.20;;;11.60;;
33022;SDS011;19390;51.460;5.710;2023-04-01T20:44:07;13.88;;;11.65;;
33022;SDS011;19390;51.460;5.710;2023-04-01T20:49:24;14.23;;;11.65;;
33022;SDS011;19390;51.460;5.710;2023-04-01T20:57:50;14.43;;;11.35;;
33022;SDS011;19390;51.460;5.710;2023-04-01T21:00:42;14.60;;;12.38;;
33022;SDS011;19390;51.460;5.710;2023-04-01T21:03:36;14.07;;;12.57;;
33022;SDS011;19390;51.460;5.710;2023-04-01T21:11:35;15.73;;;13.48;;
33022;SDS011;19390;51.460;5.710;2023-04-01T21:16:52;21.90;;;14.02;;
33022;SDS011;19390;51.460;5.710;2023-04-01T21:25:36;14.05;;;12.43;;
33022;SDS011;19390;51.460;5.710;2023-04-01T21:31:30;14.20;;;11.73;;
33022;SDS011;19390;51.460;5.710;2023-04-01T21:34:07;13.18;;;11.77;;
33022;SDS011;19390;51.460;5.710;2023-04-01T21:42:53;14.10;;;12.37;;
33022;SDS011;19390;51.460;5.710;2023-04-01T22:07:23;11.98;;;10.38;;
33022;SDS011;19390;51.460;5.710;2023-04-01T22:12:41;12.93;;;11.52;;
33022;SDS011;19390;51.460;5.710;2023-04-01T22:15:29;17.10;;;13.20;;
33022;SDS011;19390;51.460;5.710;2023-04-01T22:21:15;15.75;;;12.68;;
33022;SDS011;19390;51.460;5.710;2023-04-01T22:26:32;17.42;;;13.05;;
33022;SDS011;19390;51.460;5.710;2023-04-01T22:37:44;15.85;;;12.75;;
33022;SDS011;19390;51.460;5.710;2023-04-01T22:43:03;15.52;;;12.45;;
33022;SDS011;19390;51.460;5.710;2023-04-01T22:45:45;16.90;;;11.93;;
33022;SDS011;19390;51.460;5.710;2023-04-01T22:48:40;14.52;;;12.07;;
33022;SDS011;19390;51.460;5.710;2023-04-01T22:51:20;15.98;;;12.85;;
33022;SDS011;19390;51.460;5.710;2023-04-01T22:54:21;16.95;;;13.52;;
33022;SDS011;19390;51.460;5.710;2023-04-01T22:57:08;15.82;;;13.68;;
33022;SDS011;19390;51.460;5.710;2023-04-01T22:59:43;16.58;;;14.10;;
33022;SDS011;19390;51.460;5.710;2023-04-01T23:02:22;17.33;;;13.63;;
33022;SDS011;19390;51.460;5.710;2023-04-01T23:04:55;16.08;;;13.82;;
33022;SDS011;19390;51.460;5.710;2023-04-01T23:10:02;17.85;;;15.02;;
33022;SDS011;19390;51.460;5.710;2023-04-01T23:12:36;20.63;;;14.60;;
33022;SDS011;19390;51.460;5.710;2023-04-01T23:15:05;17.73;;;14.63;;
33022;SDS011;19390;51.460;5.710;2023-04-01T23:17:49;16.70;;;14.23;;
33022;SDS011;19390;51.460;5.710;2023-04-01T23:26:15;15.25;;;12.40;;
33022;SDS011;19390;51.460;5.710;2023-04-01T23:31:30;18.17;;;12.50;;
33022;SDS011;19390;51.460;5.710;2023-04-01T23:34:18;13.05;;;11.65;;
33022;SDS011;19390;51.460;5.710;2023-04-01T23:36:48;12.50;;;11.27;;
33022;SDS011;19390;51.460;5.710;2023-04-01T23:41:47;11.00;;;9.85;;
33022;SDS011;19390;51.460;5.710;2023-04-01T23:44:13;11.55;;;10.38;;
33022;SDS011;19390;51.460;5.710;2023-04-01T23:46:40;11.60;;;9.88;;
33022;SDS011;19390;51.460;5.710;2023-04-01T23:49:13;10.55;;;9.52;;
33022;SDS011;19390;51.460;5.710;2023-04-01T23:51:52;10.80;;;9.45;;
33022;SDS011;19390;51.460;5.710;2023-04-01T23:54:29;10.27;;;9.18;;
33022;SDS011;19390;51.460;5.710;2023-04-01T23:57:11;9.82;;;8.80;;
33022;SDS011;19390;51.460;5.710;2023-04-01T23:59:40;10.15;;;9.15;;
